sensor_id;sensor_type;location;lat;lon;timestamp;temperature;humidity
33271;DHT22;53180;51.344;6.152;2023-02-15T00:00:19;3.90;84.80
33271;DHT22;53180;51.344;6.152;2023-02-15T00:02:48;3.80;84.80
33271;DHT22;53180;51.344;6.152;2023-02-15T00:05:16;3.80;85.30
33271;DHT22;53180;51.344;6.152;2023-02-15T00:07:45;3.80;85.10
33271;DHT22;53180;51.344;6.152;2023-02-15T00:10:13;3.70;85.10
33271;DHT22;53180;51.344;6.152;2023-02-15T00:12:41;3.70;85.10
33271;DHT22;53180;51.344;6.152;2023-02-15T00:15:13;3.70;84.90
33271;DHT22;53180;51.344;6.152;2023-02-15T00:17:42;3.70;85.10
33271;DHT22;53180;51.344;6.152;2023-02-15T00:20:10;3.70;85.10
33271;DHT22;53180;51.344;6.152;2023-02-15T00:22:39;3.60;85.10
33271;DHT22;53180;51.344;6.152;2023-02-15T00:25:07;3.60;85.20
33271;DHT22;53180;51.344;6.152;2023-02-15T00:27:36;3.60;85.00
33271;DHT22;53180;51.344;6.152;2023-02-15T00:30:05;3.60;85.20
33271;DHT22;53180;51.344;6.152;2023-02-15T00:32:36;3.50;85.00
33271;DHT22;53180;51.344;6.152;2023-02-15T00:35:05;3.50;85.20
33271;DHT22;53180;51.344;6.152;2023-02-15T00:37:34;3.40;85.70
33271;DHT22;53180;51.344;6.152;2023-02-15T00:40:02;3.40;85.40
33271;DHT22;53180;51.344;6.152;2023-02-15T00:42:32;3.50;85.60
33271;DHT22;53180;51.344;6.152;2023-02-15T00:45:00;3.40;85.60
33271;DHT22;53180;51.344;6.152;2023-02-15T00:47:28;3.40;85.60
33271;DHT22;53180;51.344;6.152;2023-02-15T00:49:58;3.40;85.60
33271;DHT22;53180;51.344;6.152;2023-02-15T00:52:26;3.30;85.40
33271;DHT22;53180;51.344;6.152;2023-02-15T00:54:55;3.30;85.50
33271;DHT22;53180;51.344;6.152;2023-02-15T00:57:23;3.30;85.50
33271;DHT22;53180;51.344;6.152;2023-02-15T00:59:51;3.30;85.70
33271;DHT22;53180;51.344;6.152;2023-02-15T01:02:20;3.30;85.60
33271;DHT22;53180;51.344;6.152;2023-02-15T01:04:48;3.20;85.60
33271;DHT22;53180;51.344;6.152;2023-02-15T01:07:18;3.20;85.80
33271;DHT22;53180;51.344;6.152;2023-02-15T01:09:46;3.20;85.70
33271;DHT22;53180;51.344;6.152;2023-02-15T01:12:15;3.10;85.50
33271;DHT22;53180;51.344;6.152;2023-02-15T01:14:43;3.00;85.70
33271;DHT22;53180;51.344;6.152;2023-02-15T01:17:11;3.00;85.80
33271;DHT22;53180;51.344;6.152;2023-02-15T01:19:41;3.10;86.10
33271;DHT22;53180;51.344;6.152;2023-02-15T01:22:09;3.10;86.10
33271;DHT22;53180;51.344;6.152;2023-02-15T01:24:39;2.90;86.10
33271;DHT22;53180;51.344;6.152;2023-02-15T01:27:07;3.00;86.20
33271;DHT22;53180;51.344;6.152;2023-02-15T01:29:35;2.90;86.10
33271;DHT22;53180;51.344;6.152;2023-02-15T01:32:04;2.90;86.20
33271;DHT22;53180;51.344;6.152;2023-02-15T01:34:33;2.90;86.50
33271;DHT22;53180;51.344;6.152;2023-02-15T01:37:01;3.00;86.30
33271;DHT22;53180;51.344;6.152;2023-02-15T01:39:29;3.00;86.40
33271;DHT22;53180;51.344;6.152;2023-02-15T01:41:59;2.90;86.10
33271;DHT22;53180;51.344;6.152;2023-02-15T01:44:49;2.90;86.20
33271;DHT22;53180;51.344;6.152;2023-02-15T01:47:22;2.90;86.20
33271;DHT22;53180;51.344;6.152;2023-02-15T01:50:02;2.80;86.40
33271;DHT22;53180;51.344;6.152;2023-02-15T01:52:37;2.80;86.40
33271;DHT22;53180;51.344;6.152;2023-02-15T01:55:08;2.80;86.60
33271;DHT22;53180;51.344;6.152;2023-02-15T01:57:39;2.90;86.60
33271;DHT22;53180;51.344;6.152;2023-02-15T02:00:08;2.80;86.40
33271;DHT22;53180;51.344;6.152;2023-02-15T02:02:38;2.80;86.30
33271;DHT22;53180;51.344;6.152;2023-02-15T02:05:07;2.70;86.60
33271;DHT22;53180;51.344;6.152;2023-02-15T02:07:38;2.70;86.60
33271;DHT22;53180;51.344;6.152;2023-02-15T02:10:11;2.70;86.70
33271;DHT22;53180;51.344;6.152;2023-02-15T02:12:44;2.70;86.70
33271;DHT22;53180;51.344;6.152;2023-02-15T02:15:14;2.70;86.70
33271;DHT22;53180;51.344;6.152;2023-02-15T02:17:54;2.70;86.60
33271;DHT22;53180;51.344;6.152;2023-02-15T02:20:52;2.60;86.40
33271;DHT22;53180;51.344;6.152;2023-02-15T02:23:43;2.60;86.60
33271;DHT22;53180;51.344;6.152;2023-02-15T02:30:12;2.60;86.60
33271;DHT22;53180;51.344;6.152;2023-02-15T02:33:41;2.60;86.80
33271;DHT22;53180;51.344;6.152;2023-02-15T02:36:20;2.50;86.70
33271;DHT22;53180;51.344;6.152;2023-02-15T02:39:07;2.50;86.90
33271;DHT22;53180;51.344;6.152;2023-02-15T02:41:48;2.50;86.90
33271;DHT22;53180;51.344;6.152;2023-02-15T02:44:24;2.50;86.70
33271;DHT22;53180;51.344;6.152;2023-02-15T02:46:58;2.50;86.70
33271;DHT22;53180;51.344;6.152;2023-02-15T02:49:31;2.50;86.70
33271;DHT22;53180;51.344;6.152;2023-02-15T02:52:03;2.50;86.60
33271;DHT22;53180;51.344;6.152;2023-02-15T02:54:34;2.40;86.70
33271;DHT22;53180;51.344;6.152;2023-02-15T02:57:06;2.40;86.80
33271;DHT22;53180;51.344;6.152;2023-02-15T02:59:40;2.30;87.00
33271;DHT22;53180;51.344;6.152;2023-02-15T03:02:15;2.40;86.90
33271;DHT22;53180;51.344;6.152;2023-02-15T03:04:51;2.30;86.80
33271;DHT22;53180;51.344;6.152;2023-02-15T03:07:26;2.40;86.90
33271;DHT22;53180;51.344;6.152;2023-02-15T03:09:57;2.30;86.70
33271;DHT22;53180;51.344;6.152;2023-02-15T03:12:28;2.30;86.70
33271;DHT22;53180;51.344;6.152;2023-02-15T03:15:03;2.30;86.80
33271;DHT22;53180;51.344;6.152;2023-02-15T03:17:36;2.20;86.70
33271;DHT22;53180;51.344;6.152;2023-02-15T03:20:12;2.20;86.70
33271;DHT22;53180;51.344;6.152;2023-02-15T03:22:48;2.20;86.90
33271;DHT22;53180;51.344;6.152;2023-02-15T03:25:21;2.20;87.00
33271;DHT22;53180;51.344;6.152;2023-02-15T03:27:53;2.20;87.00
33271;DHT22;53180;51.344;6.152;2023-02-15T03:30:24;2.30;86.90
33271;DHT22;53180;51.344;6.152;2023-02-15T03:32:53;2.20;86.70
33271;DHT22;53180;51.344;6.152;2023-02-15T03:35:25;2.20;86.70
33271;DHT22;53180;51.344;6.152;2023-02-15T03:38:00;2.10;86.80
33271;DHT22;53180;51.344;6.152;2023-02-15T03:40:33;2.10;86.90
33271;DHT22;53180;51.344;6.152;2023-02-15T03:43:24;2.10;86.80
33271;DHT22;53180;51.344;6.152;2023-02-15T03:46:04;2.10;86.70
33271;DHT22;53180;51.344;6.152;2023-02-15T03:48:38;2.10;87.10
33271;DHT22;53180;51.344;6.152;2023-02-15T03:51:14;2.10;87.00
33271;DHT22;53180;51.344;6.152;2023-02-15T03:54:07;2.00;86.90
33271;DHT22;53180;51.344;6.152;2023-02-15T03:56:39;2.00;86.90
33271;DHT22;53180;51.344;6.152;2023-02-15T03:59:08;2.00;87.20
33271;DHT22;53180;51.344;6.152;2023-02-15T04:02:03;1.90;87.00
33271;DHT22;53180;51.344;6.152;2023-02-15T04:04:40;1.90;87.20
33271;DHT22;53180;51.344;6.152;2023-02-15T04:07:14;1.90;87.20
33271;DHT22;53180;51.344;6.152;2023-02-15T04:09:42;1.90;87.50
33271;DHT22;53180;51.344;6.152;2023-02-15T04:12:28;1.90;87.30
33271;DHT22;53180;51.344;6.152;2023-02-15T04:14:57;1.80;87.30
33271;DHT22;53180;51.344;6.152;2023-02-15T04:17:42;1.80;87.30
33271;DHT22;53180;51.344;6.152;2023-02-15T04:20:11;1.80;87.30
33271;DHT22;53180;51.344;6.152;2023-02-15T04:22:58;1.70;87.40
33271;DHT22;53180;51.344;6.152;2023-02-15T04:25:44;1.70;87.50
33271;DHT22;53180;51.344;6.152;2023-02-15T04:28:12;1.70;87.60
33271;DHT22;53180;51.344;6.152;2023-02-15T04:30:41;1.80;87.70
33271;DHT22;53180;51.344;6.152;2023-02-15T04:33:09;1.70;87.60
33271;DHT22;53180;51.344;6.152;2023-02-15T04:35:38;1.70;87.60
33271;DHT22;53180;51.344;6.152;2023-02-15T04:38:08;1.80;87.90
33271;DHT22;53180;51.344;6.152;2023-02-15T04:40:36;1.80;87.60
33271;DHT22;53180;51.344;6.152;2023-02-15T04:43:05;1.70;87.60
33271;DHT22;53180;51.344;6.152;2023-02-15T04:45:33;1.80;87.50
33271;DHT22;53180;51.344;6.152;2023-02-15T04:48:02;1.80;87.50
33271;DHT22;53180;51.344;6.152;2023-02-15T04:50:30;1.80;87.50
33271;DHT22;53180;51.344;6.152;2023-02-15T04:52:58;1.70;87.40
33271;DHT22;53180;51.344;6.152;2023-02-15T04:55:28;1.70;87.40
33271;DHT22;53180;51.344;6.152;2023-02-15T04:57:57;1.70;87.50
33271;DHT22;53180;51.344;6.152;2023-02-15T05:00:25;1.60;87.60
33271;DHT22;53180;51.344;6.152;2023-02-15T05:02:54;1.60;87.70
33271;DHT22;53180;51.344;6.152;2023-02-15T05:05:22;1.70;87.80
33271;DHT22;53180;51.344;6.152;2023-02-15T05:07:51;1.60;87.70
33271;DHT22;53180;51.344;6.152;2023-02-15T05:10:20;1.60;87.60
33271;DHT22;53180;51.344;6.152;2023-02-15T05:12:50;1.60;87.70
33271;DHT22;53180;51.344;6.152;2023-02-15T05:15:18;1.60;87.80
33271;DHT22;53180;51.344;6.152;2023-02-15T05:17:46;1.60;87.70
33271;DHT22;53180;51.344;6.152;2023-02-15T05:20:15;1.60;87.80
33271;DHT22;53180;51.344;6.152;2023-02-15T05:22:45;1.60;87.80
33271;DHT22;53180;51.344;6.152;2023-02-15T05:25:13;1.60;87.90
33271;DHT22;53180;51.344;6.152;2023-02-15T05:28:00;1.60;87.90
33271;DHT22;53180;51.344;6.152;2023-02-15T05:30:46;1.60;87.70
33271;DHT22;53180;51.344;6.152;2023-02-15T05:33:15;1.60;87.60
33271;DHT22;53180;51.344;6.152;2023-02-15T05:35:44;1.60;87.60
33271;DHT22;53180;51.344;6.152;2023-02-15T05:38:12;1.50;87.70
33271;DHT22;53180;51.344;6.152;2023-02-15T05:40:40;1.50;87.70
33271;DHT22;53180;51.344;6.152;2023-02-15T05:43:10;1.50;87.60
33271;DHT22;53180;51.344;6.152;2023-02-15T05:45:38;1.50;87.80
33271;DHT22;53180;51.344;6.152;2023-02-15T05:48:07;1.50;87.80
33271;DHT22;53180;51.344;6.152;2023-02-15T05:50:35;1.40;87.80
33271;DHT22;53180;51.344;6.152;2023-02-15T05:53:04;1.40;87.80
33271;DHT22;53180;51.344;6.152;2023-02-15T05:55:37;1.50;87.90
33271;DHT22;53180;51.344;6.152;2023-02-15T05:58:06;1.40;87.90
33271;DHT22;53180;51.344;6.152;2023-02-15T06:00:36;1.40;87.80
33271;DHT22;53180;51.344;6.152;2023-02-15T06:03:04;1.40;87.80
33271;DHT22;53180;51.344;6.152;2023-02-15T06:05:32;1.50;88.10
33271;DHT22;53180;51.344;6.152;2023-02-15T06:08:01;1.50;87.90
33271;DHT22;53180;51.344;6.152;2023-02-15T06:10:31;1.50;87.80
33271;DHT22;53180;51.344;6.152;2023-02-15T06:13:00;1.40;87.70
33271;DHT22;53180;51.344;6.152;2023-02-15T06:15:28;1.40;87.70
33271;DHT22;53180;51.344;6.152;2023-02-15T06:17:58;1.40;87.80
33271;DHT22;53180;51.344;6.152;2023-02-15T06:20:26;1.30;87.70
33271;DHT22;53180;51.344;6.152;2023-02-15T06:22:55;1.30;87.70
33271;DHT22;53180;51.344;6.152;2023-02-15T06:25:23;1.30;88.20
33271;DHT22;53180;51.344;6.152;2023-02-15T06:27:52;1.30;87.90
33271;DHT22;53180;51.344;6.152;2023-02-15T06:30:20;1.30;87.90
33271;DHT22;53180;51.344;6.152;2023-02-15T06:32:49;1.30;88.00
33271;DHT22;53180;51.344;6.152;2023-02-15T06:35:19;1.30;88.00
33271;DHT22;53180;51.344;6.152;2023-02-15T06:37:49;1.30;88.20
33271;DHT22;53180;51.344;6.152;2023-02-15T06:40:17;1.30;87.90
33271;DHT22;53180;51.344;6.152;2023-02-15T06:42:46;1.30;87.80
33271;DHT22;53180;51.344;6.152;2023-02-15T06:45:14;1.30;88.00
33271;DHT22;53180;51.344;6.152;2023-02-15T06:47:43;1.30;88.00
33271;DHT22;53180;51.344;6.152;2023-02-15T06:50:11;1.30;88.10
33271;DHT22;53180;51.344;6.152;2023-02-15T06:52:41;1.30;88.00
33271;DHT22;53180;51.344;6.152;2023-02-15T06:55:10;1.30;88.00
33271;DHT22;53180;51.344;6.152;2023-02-15T06:57:40;1.30;88.00
33271;DHT22;53180;51.344;6.152;2023-02-15T07:00:10;1.40;88.30
33271;DHT22;53180;51.344;6.152;2023-02-15T07:02:39;1.30;88.00
33271;DHT22;53180;51.344;6.152;2023-02-15T07:05:08;1.30;88.20
33271;DHT22;53180;51.344;6.152;2023-02-15T07:07:36;1.30;88.00
33271;DHT22;53180;51.344;6.152;2023-02-15T07:10:07;1.30;88.10
33271;DHT22;53180;51.344;6.152;2023-02-15T07:12:36;1.30;88.10
33271;DHT22;53180;51.344;6.152;2023-02-15T07:15:10;1.30;88.10
33271;DHT22;53180;51.344;6.152;2023-02-15T07:17:39;1.30;88.10
33271;DHT22;53180;51.344;6.152;2023-02-15T07:20:11;1.30;88.30
33271;DHT22;53180;51.344;6.152;2023-02-15T07:22:41;1.40;88.10
33271;DHT22;53180;51.344;6.152;2023-02-15T07:25:11;1.40;88.10
33271;DHT22;53180;51.344;6.152;2023-02-15T07:27:40;1.40;88.10
33271;DHT22;53180;51.344;6.152;2023-02-15T07:30:11;1.50;88.00
33271;DHT22;53180;51.344;6.152;2023-02-15T07:32:41;1.50;88.00
33271;DHT22;53180;51.344;6.152;2023-02-15T07:35:24;1.50;87.90
33271;DHT22;53180;51.344;6.152;2023-02-15T07:37:52;1.60;87.90
33271;DHT22;53180;51.344;6.152;2023-02-15T07:40:23;1.70;87.90
33271;DHT22;53180;51.344;6.152;2023-02-15T07:42:51;1.70;87.80
33271;DHT22;53180;51.344;6.152;2023-02-15T07:45:21;1.70;87.80
33271;DHT22;53180;51.344;6.152;2023-02-15T07:47:50;1.80;87.80
33271;DHT22;53180;51.344;6.152;2023-02-15T07:50:19;1.80;87.60
33271;DHT22;53180;51.344;6.152;2023-02-15T07:52:47;1.90;87.70
33271;DHT22;53180;51.344;6.152;2023-02-15T07:55:16;2.00;87.50
33271;DHT22;53180;51.344;6.152;2023-02-15T07:57:47;2.00;87.30
33271;DHT22;53180;51.344;6.152;2023-02-15T08:00:18;2.00;87.20
33271;DHT22;53180;51.344;6.152;2023-02-15T08:02:51;2.10;87.20
33271;DHT22;53180;51.344;6.152;2023-02-15T08:05:34;2.20;87.10
33271;DHT22;53180;51.344;6.152;2023-02-15T08:08:03;2.30;86.80
33271;DHT22;53180;51.344;6.152;2023-02-15T08:10:32;2.40;86.80
33271;DHT22;53180;51.344;6.152;2023-02-15T08:13:20;2.40;86.50
33271;DHT22;53180;51.344;6.152;2023-02-15T08:15:48;2.50;86.50
33271;DHT22;53180;51.344;6.152;2023-02-15T08:18:17;2.60;86.60
33271;DHT22;53180;51.344;6.152;2023-02-15T08:20:49;2.70;86.20
33271;DHT22;53180;51.344;6.152;2023-02-15T08:23:17;2.80;86.20
33271;DHT22;53180;51.344;6.152;2023-02-15T08:25:46;2.90;85.90
33271;DHT22;53180;51.344;6.152;2023-02-15T08:28:14;2.90;85.50
33271;DHT22;53180;51.344;6.152;2023-02-15T08:30:44;3.00;85.30
33271;DHT22;53180;51.344;6.152;2023-02-15T08:33:12;3.10;85.20
33271;DHT22;53180;51.344;6.152;2023-02-15T08:35:41;3.20;85.20
33271;DHT22;53180;51.344;6.152;2023-02-15T08:38:09;3.20;85.20
33271;DHT22;53180;51.344;6.152;2023-02-15T08:40:37;3.30;85.10
33271;DHT22;53180;51.344;6.152;2023-02-15T08:43:06;3.50;84.90
33271;DHT22;53180;51.344;6.152;2023-02-15T08:45:34;3.70;84.70
33271;DHT22;53180;51.344;6.152;2023-02-15T08:48:05;3.80;84.40
33271;DHT22;53180;51.344;6.152;2023-02-15T08:50:33;3.90;84.20
33271;DHT22;53180;51.344;6.152;2023-02-15T08:53:02;4.10;83.90
33271;DHT22;53180;51.344;6.152;2023-02-15T08:55:30;4.20;83.70
33271;DHT22;53180;51.344;6.152;2023-02-15T08:57:58;4.40;83.10
33271;DHT22;53180;51.344;6.152;2023-02-15T09:00:27;4.50;82.40
33271;DHT22;53180;51.344;6.152;2023-02-15T09:02:56;4.50;81.90
33271;DHT22;53180;51.344;6.152;2023-02-15T09:05:26;4.60;81.90
33271;DHT22;53180;51.344;6.152;2023-02-15T09:07:54;4.70;82.10
33271;DHT22;53180;51.344;6.152;2023-02-15T09:10:23;4.90;81.90
33271;DHT22;53180;51.344;6.152;2023-02-15T09:12:51;5.00;81.60
33271;DHT22;53180;51.344;6.152;2023-02-15T09:15:20;5.20;81.50
33271;DHT22;53180;51.344;6.152;2023-02-15T09:17:48;5.30;81.10
33271;DHT22;53180;51.344;6.152;2023-02-15T09:20:17;5.40;80.40
33271;DHT22;53180;51.344;6.152;2023-02-15T09:22:47;5.40;80.20
33271;DHT22;53180;51.344;6.152;2023-02-15T09:25:15;5.50;79.10
33271;DHT22;53180;51.344;6.152;2023-02-15T09:27:44;5.70;79.70
33271;DHT22;53180;51.344;6.152;2023-02-15T09:30:13;5.80;78.90
33271;DHT22;53180;51.344;6.152;2023-02-15T09:32:41;5.90;78.30
33271;DHT22;53180;51.344;6.152;2023-02-15T09:35:10;5.90;78.10
33271;DHT22;53180;51.344;6.152;2023-02-15T09:37:38;6.10;78.30
33271;DHT22;53180;51.344;6.152;2023-02-15T09:40:09;6.30;78.30
33271;DHT22;53180;51.344;6.152;2023-02-15T09:43:09;6.50;78.10
33271;DHT22;53180;51.344;6.152;2023-02-15T09:48:45;6.60;77.40
33271;DHT22;53180;51.344;6.152;2023-02-15T09:51:29;6.70;76.80
33271;DHT22;53180;51.344;6.152;2023-02-15T09:57:09;6.90;77.10
33271;DHT22;53180;51.344;6.152;2023-02-15T09:59:47;7.10;77.30
33271;DHT22;53180;51.344;6.152;2023-02-15T10:02:28;7.20;76.10
33271;DHT22;53180;51.344;6.152;2023-02-15T10:05:14;7.30;76.60
33271;DHT22;53180;51.344;6.152;2023-02-15T10:08:05;7.40;75.70
33271;DHT22;53180;51.344;6.152;2023-02-15T10:11:05;7.60;75.80
33271;DHT22;53180;51.344;6.152;2023-02-15T10:14:06;7.70;75.30
33271;DHT22;53180;51.344;6.152;2023-02-15T10:16:51;7.90;74.90
33271;DHT22;53180;51.344;6.152;2023-02-15T10:19:35;7.90;73.70
33271;DHT22;53180;51.344;6.152;2023-02-15T10:22:20;8.10;73.10
33271;DHT22;53180;51.344;6.152;2023-02-15T10:25:07;8.10;73.40
33271;DHT22;53180;51.344;6.152;2023-02-15T10:27:46;8.20;73.40
33271;DHT22;53180;51.344;6.152;2023-02-15T10:30:20;8.20;72.70
33271;DHT22;53180;51.344;6.152;2023-02-15T10:32:58;8.40;73.00
33271;DHT22;53180;51.344;6.152;2023-02-15T10:35:35;8.50;73.00
33271;DHT22;53180;51.344;6.152;2023-02-15T10:38:20;8.90;71.70
33271;DHT22;53180;51.344;6.152;2023-02-15T10:41:04;9.30;71.00
33271;DHT22;53180;51.344;6.152;2023-02-15T10:43:51;9.60;70.70
33271;DHT22;53180;51.344;6.152;2023-02-15T10:46:44;9.80;69.70
33271;DHT22;53180;51.344;6.152;2023-02-15T10:49:29;9.70;69.70
33271;DHT22;53180;51.344;6.152;2023-02-15T10:52:15;9.80;69.40
33271;DHT22;53180;51.344;6.152;2023-02-15T10:54:58;10.00;68.10
33271;DHT22;53180;51.344;6.152;2023-02-15T10:57:36;10.20;68.60
33271;DHT22;53180;51.344;6.152;2023-02-15T11:00:12;10.70;68.40
33271;DHT22;53180;51.344;6.152;2023-02-15T11:03:00;10.80;66.50
33271;DHT22;53180;51.344;6.152;2023-02-15T11:06:02;11.10;65.80
33271;DHT22;53180;51.344;6.152;2023-02-15T11:08:35;11.20;65.50
33271;DHT22;53180;51.344;6.152;2023-02-15T11:11:08;11.40;65.20
33271;DHT22;53180;51.344;6.152;2023-02-15T11:13:40;11.50;64.90
33271;DHT22;53180;51.344;6.152;2023-02-15T11:16:15;11.60;64.70
33271;DHT22;53180;51.344;6.152;2023-02-15T11:18:51;11.80;64.40
33271;DHT22;53180;51.344;6.152;2023-02-15T11:21:24;12.10;64.10
33271;DHT22;53180;51.344;6.152;2023-02-15T11:23:54;12.20;62.60
33271;DHT22;53180;51.344;6.152;2023-02-15T11:26:28;12.40;61.70
33271;DHT22;53180;51.344;6.152;2023-02-15T11:29:05;12.60;62.90
33271;DHT22;53180;51.344;6.152;2023-02-15T11:31:42;12.90;61.50
33271;DHT22;53180;51.344;6.152;2023-02-15T11:34:19;12.80;60.00
33271;DHT22;53180;51.344;6.152;2023-02-15T11:36:50;12.80;61.30
33271;DHT22;53180;51.344;6.152;2023-02-15T11:39:21;12.70;60.20
33271;DHT22;53180;51.344;6.152;2023-02-15T11:41:55;12.50;62.10
33271;DHT22;53180;51.344;6.152;2023-02-15T11:44:29;12.70;61.60
33271;DHT22;53180;51.344;6.152;2023-02-15T11:47:00;12.50;61.70
33271;DHT22;53180;51.344;6.152;2023-02-15T11:49:32;12.60;61.50
33271;DHT22;53180;51.344;6.152;2023-02-15T11:52:04;12.70;61.60
33271;DHT22;53180;51.344;6.152;2023-02-15T11:54:36;13.00;62.10
33271;DHT22;53180;51.344;6.152;2023-02-15T11:57:14;13.30;60.90
33271;DHT22;53180;51.344;6.152;2023-02-15T11:59:48;13.30;60.20
33271;DHT22;53180;51.344;6.152;2023-02-15T12:02:20;13.30;60.00
33271;DHT22;53180;51.344;6.152;2023-02-15T12:04:52;13.40;60.70
33271;DHT22;53180;51.344;6.152;2023-02-15T12:07:25;13.50;60.50
33271;DHT22;53180;51.344;6.152;2023-02-15T12:10:00;13.50;60.60
33271;DHT22;53180;51.344;6.152;2023-02-15T12:12:35;13.50;60.40
33271;DHT22;53180;51.344;6.152;2023-02-15T12:15:06;13.60;59.80
33271;DHT22;53180;51.344;6.152;2023-02-15T12:17:39;13.50;58.60
33271;DHT22;53180;51.344;6.152;2023-02-15T12:20:25;13.30;59.80
33271;DHT22;53180;51.344;6.152;2023-02-15T12:23:00;13.30;60.20
33271;DHT22;53180;51.344;6.152;2023-02-15T12:25:36;13.50;60.30
33271;DHT22;53180;51.344;6.152;2023-02-15T12:28:20;13.60;60.60
33271;DHT22;53180;51.344;6.152;2023-02-15T12:30:52;13.50;60.40
33271;DHT22;53180;51.344;6.152;2023-02-15T12:33:26;13.50;60.40
33271;DHT22;53180;51.344;6.152;2023-02-15T12:36:01;13.40;60.10
33271;DHT22;53180;51.344;6.152;2023-02-15T12:38:32;13.50;60.00
33271;DHT22;53180;51.344;6.152;2023-02-15T12:41:02;13.60;57.90
33271;DHT22;53180;51.344;6.152;2023-02-15T12:43:32;13.80;57.20
33271;DHT22;53180;51.344;6.152;2023-02-15T12:46:20;13.70;59.10
33271;DHT22;53180;51.344;6.152;2023-02-15T12:49:06;13.70;59.80
33271;DHT22;53180;51.344;6.152;2023-02-15T12:51:52;13.50;60.40
33271;DHT22;53180;51.344;6.152;2023-02-15T12:54:30;13.50;60.70
33271;DHT22;53180;51.344;6.152;2023-02-15T12:57:23;13.50;60.30
33271;DHT22;53180;51.344;6.152;2023-02-15T12:59:55;13.50;58.80
33271;DHT22;53180;51.344;6.152;2023-02-15T13:02:28;13.70;55.10
33271;DHT22;53180;51.344;6.152;2023-02-15T13:05:07;13.90;53.60
33271;DHT22;53180;51.344;6.152;2023-02-15T13:07:49;13.90;52.80
33271;DHT22;53180;51.344;6.152;2023-02-15T13:10:29;14.00;50.80
33271;DHT22;53180;51.344;6.152;2023-02-15T13:12:59;14.00;51.50
33271;DHT22;53180;51.344;6.152;2023-02-15T13:15:34;14.10;52.80
33271;DHT22;53180;51.344;6.152;2023-02-15T13:18:05;14.20;52.00
33271;DHT22;53180;51.344;6.152;2023-02-15T13:20:40;14.20;51.20
33271;DHT22;53180;51.344;6.152;2023-02-15T13:23:24;14.30;51.80
33271;DHT22;53180;51.344;6.152;2023-02-15T13:25:57;14.20;51.30
33271;DHT22;53180;51.344;6.152;2023-02-15T13:28:35;14.30;51.10
33271;DHT22;53180;51.344;6.152;2023-02-15T13:31:12;14.30;51.10
33271;DHT22;53180;51.344;6.152;2023-02-15T13:33:45;14.20;52.10
33271;DHT22;53180;51.344;6.152;2023-02-15T13:36:20;14.20;50.50
33271;DHT22;53180;51.344;6.152;2023-02-15T13:39:13;14.30;50.40
33271;DHT22;53180;51.344;6.152;2023-02-15T13:41:56;14.20;51.30
33271;DHT22;53180;51.344;6.152;2023-02-15T13:44:52;14.20;51.10
33271;DHT22;53180;51.344;6.152;2023-02-15T13:47:30;14.10;51.10
33271;DHT22;53180;51.344;6.152;2023-02-15T13:50:20;14.00;51.70
33271;DHT22;53180;51.344;6.152;2023-02-15T13:53:07;14.00;52.50
33271;DHT22;53180;51.344;6.152;2023-02-15T13:55:45;14.00;51.40
33271;DHT22;53180;51.344;6.152;2023-02-15T13:58:43;13.90;53.20
33271;DHT22;53180;51.344;6.152;2023-02-15T14:01:40;13.90;52.30
33271;DHT22;53180;51.344;6.152;2023-02-15T14:04:31;13.80;52.70
33271;DHT22;53180;51.344;6.152;2023-02-15T14:07:24;13.80;52.10
33271;DHT22;53180;51.344;6.152;2023-02-15T14:10:11;13.80;53.60
33271;DHT22;53180;51.344;6.152;2023-02-15T14:13:02;13.80;52.50
33271;DHT22;53180;51.344;6.152;2023-02-15T14:15:44;13.90;52.60
33271;DHT22;53180;51.344;6.152;2023-02-15T14:18:21;13.90;52.30
33271;DHT22;53180;51.344;6.152;2023-02-15T14:21:01;13.90;53.00
33271;DHT22;53180;51.344;6.152;2023-02-15T14:23:37;13.90;53.30
33271;DHT22;53180;51.344;6.152;2023-02-15T14:26:15;13.90;53.80
33271;DHT22;53180;51.344;6.152;2023-02-15T14:28:53;13.90;53.50
33271;DHT22;53180;51.344;6.152;2023-02-15T14:31:34;13.90;53.00
33271;DHT22;53180;51.344;6.152;2023-02-15T14:34:07;13.90;53.30
33271;DHT22;53180;51.344;6.152;2023-02-15T14:36:46;13.90;53.50
33271;DHT22;53180;51.344;6.152;2023-02-15T14:39:26;13.90;53.20
33271;DHT22;53180;51.344;6.152;2023-02-15T14:42:23;13.90;52.50
33271;DHT22;53180;51.344;6.152;2023-02-15T14:44:59;13.90;52.80
33271;DHT22;53180;51.344;6.152;2023-02-15T14:47:33;13.90;57.30
33271;DHT22;53180;51.344;6.152;2023-02-15T14:53:40;13.80;58.60
33271;DHT22;53180;51.344;6.152;2023-02-15T14:56:23;13.80;58.90
33271;DHT22;53180;51.344;6.152;2023-02-15T14:58:59;13.80;59.10
33271;DHT22;53180;51.344;6.152;2023-02-15T15:01:37;13.80;57.50
33271;DHT22;53180;51.344;6.152;2023-02-15T15:04:07;13.80;55.50
33271;DHT22;53180;51.344;6.152;2023-02-15T15:06:40;13.80;54.10
33271;DHT22;53180;51.344;6.152;2023-02-15T15:09:12;13.70;55.50
33271;DHT22;53180;51.344;6.152;2023-02-15T15:11:47;13.70;55.50
33271;DHT22;53180;51.344;6.152;2023-02-15T15:14:50;13.70;55.50
33271;DHT22;53180;51.344;6.152;2023-02-15T15:17:55;13.60;54.10
33271;DHT22;53180;51.344;6.152;2023-02-15T15:20:45;13.60;54.90
33271;DHT22;53180;51.344;6.152;2023-02-15T15:23:50;13.50;54.90
33271;DHT22;53180;51.344;6.152;2023-02-15T15:26:23;13.50;55.30
33271;DHT22;53180;51.344;6.152;2023-02-15T15:29:00;13.40;55.80
33271;DHT22;53180;51.344;6.152;2023-02-15T15:31:41;13.40;55.80
33271;DHT22;53180;51.344;6.152;2023-02-15T15:38:01;13.30;57.00
33271;DHT22;53180;51.344;6.152;2023-02-15T15:41:02;13.20;57.00
33271;DHT22;53180;51.344;6.152;2023-02-15T15:44:00;13.10;57.70
33271;DHT22;53180;51.344;6.152;2023-02-15T15:47:08;13.10;57.80
33271;DHT22;53180;51.344;6.152;2023-02-15T15:49:46;13.00;58.40
33271;DHT22;53180;51.344;6.152;2023-02-15T15:52:18;12.90;58.80
33271;DHT22;53180;51.344;6.152;2023-02-15T15:54:51;12.90;59.10
33271;DHT22;53180;51.344;6.152;2023-02-15T15:57:26;12.80;59.80
33271;DHT22;53180;51.344;6.152;2023-02-15T15:59:57;12.80;59.70
33271;DHT22;53180;51.344;6.152;2023-02-15T16:02:27;12.70;59.80
33271;DHT22;53180;51.344;6.152;2023-02-15T16:05:06;12.70;60.50
33271;DHT22;53180;51.344;6.152;2023-02-15T16:07:41;12.60;60.80
33271;DHT22;53180;51.344;6.152;2023-02-15T16:10:20;12.50;61.10
33271;DHT22;53180;51.344;6.152;2023-02-15T16:12:50;12.50;61.50
33271;DHT22;53180;51.344;6.152;2023-02-15T16:15:21;12.40;61.40
33271;DHT22;53180;51.344;6.152;2023-02-15T16:17:55;12.40;61.90
33271;DHT22;53180;51.344;6.152;2023-02-15T16:20:27;12.30;62.00
33271;DHT22;53180;51.344;6.152;2023-02-15T16:23:12;12.30;62.50
33271;DHT22;53180;51.344;6.152;2023-02-15T16:25:55;12.20;62.70
33271;DHT22;53180;51.344;6.152;2023-02-15T16:28:28;12.10;63.30
33271;DHT22;53180;51.344;6.152;2023-02-15T16:31:05;12.10;63.60
33271;DHT22;53180;51.344;6.152;2023-02-15T16:33:39;12.00;64.20
33271;DHT22;53180;51.344;6.152;2023-02-15T16:36:11;11.90;64.20
33271;DHT22;53180;51.344;6.152;2023-02-15T16:39:07;11.90;64.00
33271;DHT22;53180;51.344;6.152;2023-02-15T16:41:38;11.80;64.40
33271;DHT22;53180;51.344;6.152;2023-02-15T16:44:11;11.80;64.70